Time;durP1;ratioP1;P1;durP2;ratioP2;P2;SDS_P1;SDS_P2;PMS_P1;PMS_P2;Temp;Humidity;BMP_temperature;BMP_pressure;BME280_temperature;BME280_humidity;BME280_pressure;Samples;Min_cycle;Max_cycle;Signal;HPM_P1;HPM_P2
2022/11/05 00:09:59;;;;;;;;;;;;;;;9.18;75.35;100423.84;5071140;28;19958;-31
2022/11/05 00:17:52;;;;;;;;;;;;;;;9.16;75.42;100430.84;5058155;28;20288;-31
2022/11/05 00:20:17;;;;;;;;;;;;;;;9.16;75.40;100430.84;5071350;28;20172;-31
2022/11/05 00:25:28;;;;;;;;;;;;;;;9.15;75.58;100439.63;5064717;28;19928;-31
2022/11/05 00:27:57;;;;;;;;;;;;;;;9.15;75.53;100439.63;5071216;28;19938;-31
2022/11/05 00:30:24;;;;;;;;;;;;;;;9.15;75.51;100440.53;5051940;28;20009;-31
2022/11/05 00:32:50;;;;;;;;;;;;;;;9.15;75.81;100442.28;5063429;28;19917;-31
2022/11/05 00:35:16;;;;;;;;;;;;;;;9.13;75.64;100450.19;5067464;28;19954;-31
2022/11/05 00:37:41;;;;;;;;;;;;;;;9.12;76.02;100445.81;5069024;28;19916;-31
2022/11/05 00:40:07;;;;;;;;;;;;;;;9.11;75.78;100450.19;5040601;28;20062;-31
2022/11/05 00:45:16;;;;;;;;;;;;;;;9.10;75.83;100448.44;5051019;28;20064;-31
2022/11/05 00:50:25;;;;;;;;;;;;;;;9.10;75.89;100453.69;5069668;28;20404;-31
2022/11/05 00:52:54;;;;;;;;;;;;;;;9.09;76.14;100457.22;5070416;28;19920;-31
2022/11/05 00:55:27;;;;;;;;;;;;;;;9.10;75.99;100452.81;5051240;28;20020;-31
2022/11/05 00:57:53;;;;;;;;;;;;;;;9.10;76.21;100461.59;5039483;28;19917;-30
2022/11/05 01:00:18;;;;;;;;;;;;;;;9.10;76.69;100463.34;5070703;28;19923;-29
2022/11/05 01:02:43;;;;;;;;;;;;;;;9.11;76.59;100471.22;5070371;28;19939;-31
2022/11/05 01:05:08;;;;;;;;;;;;;;;9.11;76.46;100473.84;5068426;28;19943;-31
2022/11/05 01:07:34;;;;;;;;;;;;;;;9.11;76.21;100473.00;5052902;28;19920;-31
2022/11/05 01:09:59;;;;;;;;;;;;;;;9.13;76.25;100467.75;5041550;28;19936;-31
2022/11/05 01:12:24;;;;;;;;;;;;;;;9.14;76.56;100469.47;5067285;28;19913;-32
2022/11/05 01:14:49;;;;;;;;;;;;;;;9.12;76.74;100469.47;5050110;28;20320;-31
2022/11/05 01:17:15;;;;;;;;;;;;;;;9.14;76.48;100480.00;5073815;28;20402;-31
2022/11/05 01:19:40;;;;;;;;;;;;;;;9.14;76.52;100480.00;5074934;28;20370;-31
2022/11/05 01:22:06;;;;;;;;;;;;;;;9.15;76.48;100479.09;5073971;28;19942;-31
2022/11/05 01:24:31;;;;;;;;;;;;;;;9.15;76.62;100480.00;5069716;28;20400;-31
2022/11/05 01:26:56;;;;;;;;;;;;;;;9.14;76.67;100487.91;5053104;28;20374;-31
2022/11/05 01:29:21;;;;;;;;;;;;;;;9.15;76.89;100492.25;5055997;28;19921;-31
2022/11/05 01:31:47;;;;;;;;;;;;;;;9.17;77.16;100495.78;5072703;28;20365;-31
2022/11/05 01:34:12;;;;;;;;;;;;;;;9.15;76.86;100492.25;5072685;28;19920;-31
2022/11/05 01:36:37;;;;;;;;;;;;;;;9.17;76.84;100491.38;5067797;28;19927;-31
2022/11/05 01:39:02;;;;;;;;;;;;;;;9.18;76.89;100502.78;5074629;28;20015;-31
2022/11/05 01:41:28;;;;;;;;;;;;;;;9.18;76.87;100498.41;5053996;28;19913;-31
2022/11/05 01:43:58;;;;;;;;;;;;;;;9.20;76.70;100506.25;5073005;28;20150;-31
2022/11/05 01:46:28;;;;;;;;;;;;;;;9.20;76.71;100501.88;5068744;28;20016;-31
2022/11/05 01:48:54;;;;;;;;;;;;;;;9.21;76.56;100503.63;5055942;28;19969;-32
2022/11/05 01:51:20;;;;;;;;;;;;;;;9.20;76.37;100501.00;5072838;28;19921;-31
2022/11/05 01:53:46;;;;;;;;;;;;;;;9.21;76.70;100511.50;5054833;28;19959;-31
2022/11/05 01:56:13;;;;;;;;;;;;;;;9.21;76.67;100508.03;5071586;28;19916;-31
2022/11/05 01:58:41;;;;;;;;;;;;;;;9.21;76.56;100510.66;5055542;28;20255;-31
2022/11/05 02:01:06;;;;;;;;;;;;;;;9.21;76.25;100497.50;5053805;28;19920;-31
2022/11/05 02:03:32;;;;;;;;;;;;;;;9.21;76.30;100508.88;5072629;28;19973;-31
2022/11/05 02:05:58;;;;;;;;;;;;;;;9.21;76.38;100513.28;5054511;28;20324;-31
2022/11/05 02:08:44;;;;;;;;;;;;;;;9.21;76.37;100513.28;5073467;28;19916;-31
2022/11/05 02:11:10;;;;;;;;;;;;;;;9.21;76.09;100510.66;5055118;28;19990;-31
2022/11/05 02:13:35;;;;;;;;;;;;;;;9.23;76.42;100524.66;5055589;28;19967;-31
2022/11/05 02:16:03;;;;;;;;;;;;;;;9.22;76.17;100526.44;5046760;28;20128;-31
2022/11/05 02:18:40;;;;;;;;;;;;;;;9.22;76.21;100525.56;5062007;28;19913;-31
2022/11/05 02:21:28;;;;;;;;;;;;;;;9.22;76.20;100520.28;5049042;28;20017;-31
2022/11/05 02:24:02;;;;;;;;;;;;;;;9.22;76.06;100522.94;5072803;28;20275;-31
2022/11/05 02:26:38;;;;;;;;;;;;;;;9.22;76.00;100529.06;5065898;28;19931;-31
2022/11/05 02:29:03;;;;;;;;;;;;;;;9.22;75.99;100531.72;5054900;28;19930;-31
2022/11/05 02:31:48;;;;;;;;;;;;;;;9.22;75.87;100530.81;5071955;28;20282;-31
2022/11/05 02:34:40;;;;;;;;;;;;;;;9.23;75.86;100527.28;5053130;28;19924;-32
2022/11/05 02:37:10;;;;;;;;;;;;;;;9.22;76.07;100533.44;5048735;28;19924;-31
2022/11/05 02:39:38;;;;;;;;;;;;;;;9.22;76.08;100541.34;5069264;28;19935;-31
2022/11/05 02:42:11;;;;;;;;;;;;;;;9.21;76.04;100547.50;5067378;28;19924;-31
2022/11/05 02:44:42;;;;;;;;;;;;;;;9.21;76.09;100544.88;5050931;28;19920;-31
2022/11/05 02:47:23;;;;;;;;;;;;;;;9.22;75.74;100551.88;5070079;28;19916;-31
2022/11/05 02:50:07;;;;;;;;;;;;;;;9.21;75.98;100548.34;5065395;28;20359;-31
2022/11/05 02:52:41;;;;;;;;;;;;;;;9.21;75.79;100550.13;5067900;28;20377;-31
2022/11/05 02:55:13;;;;;;;;;;;;;;;9.20;75.78;100543.97;5042198;28;19927;-31
2022/11/05 02:57:40;;;;;;;;;;;;;;;9.20;75.75;100543.09;5064850;28;19916;-31
2022/11/05 03:00:07;;;;;;;;;;;;;;;9.19;75.78;100542.25;5053826;28;19962;-32
2022/11/05 03:02:32;;;;;;;;;;;;;;;9.19;75.71;100549.25;5036882;28;20051;-31
2022/11/05 03:04:58;;;;;;;;;;;;;;;9.19;75.92;100551.88;5070926;28;20463;-31
2022/11/05 03:07:23;;;;;;;;;;;;;;;9.19;75.85;100557.16;5061749;28;20502;-31
2022/11/05 03:09:48;;;;;;;;;;;;;;;9.18;76.06;100571.19;5072442;28;19921;-31
2022/11/05 03:12:22;;;;;;;;;;;;;;;9.19;75.67;100562.41;5071350;28;20010;-31
2022/11/05 03:14:47;;;;;;;;;;;;;;;9.18;75.59;100566.81;5065549;28;19916;-32
2022/11/05 03:17:31;;;;;;;;;;;;;;;9.17;75.95;100564.19;5068200;28;20080;-31
2022/11/05 03:20:16;;;;;;;;;;;;;;;9.17;75.92;100569.44;5054147;28;19927;-31
2022/11/05 03:22:42;;;;;;;;;;;;;;;9.17;75.73;100567.69;5060969;28;19920;-31
2022/11/05 03:25:09;;;;;;;;;;;;;;;9.16;76.05;100573.81;5049865;28;19966;-31
2022/11/05 03:27:36;;;;;;;;;;;;;;;9.18;75.68;100584.34;5058704;28;19967;-31
2022/11/05 03:30:05;;;;;;;;;;;;;;;9.18;75.70;100598.41;5069410;28;19967;-31
2022/11/05 03:32:31;;;;;;;;;;;;;;;9.17;75.81;100593.13;5053504;28;19916;-31
2022/11/05 03:35:01;;;;;;;;;;;;;;;9.16;75.82;100587.00;5044638;28;19970;-31
2022/11/05 03:37:26;;;;;;;;;;;;;;;9.15;76.09;100587.88;5049959;28;19920;-31
2022/11/05 03:39:52;;;;;;;;;;;;;;;9.16;76.13;100599.25;5036814;28;20056;-31
2022/11/05 03:42:18;;;;;;;;;;;;;;;9.15;75.89;100602.78;5070522;28;19916;-31
2022/11/05 03:44:46;;;;;;;;;;;;;;;9.15;75.88;100606.28;5044827;28;19925;-30
2022/11/05 03:47:13;;;;;;;;;;;;;;;9.15;75.84;100603.66;5053397;28;20373;-30
2022/11/05 03:49:42;;;;;;;;;;;;;;;9.16;75.95;100599.25;5052431;28;19974;-30
2022/11/05 03:52:09;;;;;;;;;;;;;;;9.16;75.53;100604.53;5070539;28;19916;-30
2022/11/05 03:54:35;;;;;;;;;;;;;;;9.14;75.76;100607.16;5062796;28;19962;-30
2022/11/05 03:57:07;;;;;;;;;;;;;;;9.14;76.05;100611.56;5061688;28;19948;-30
2022/11/05 03:59:38;;;;;;;;;;;;;;;9.14;75.47;100611.56;5071546;28;20011;-30
2022/11/05 04:02:03;;;;;;;;;;;;;;;9.13;75.87;100615.09;5052884;28;19928;-30
2022/11/05 04:04:28;;;;;;;;;;;;;;;9.11;76.30;100613.31;5064981;28;20351;-30
2022/11/05 04:15:06;;;;;;;;;;;;;;;9.06;76.79;100620.34;5065565;28;19923;-30
2022/11/05 04:17:31;;;;;;;;;;;;;;;9.06;76.50;100625.63;5068728;28;19916;-30
2022/11/05 04:25:24;;;;;;;;;;;;;;;9.02;75.92;100642.31;5063852;28;19923;-31
2022/11/05 04:27:50;;;;;;;;;;;;;;;9.01;76.19;100635.28;5065049;28;19916;-30
2022/11/05 04:30:18;;;;;;;;;;;;;;;9.02;76.40;100638.78;5071474;28;19961;-29
2022/11/05 04:32:59;;;;;;;;;;;;;;;9.01;75.70;100644.94;5062542;28;19927;-30
2022/11/05 04:35:24;;;;;;;;;;;;;;;8.99;75.97;100650.19;5067819;28;19916;-30
2022/11/05 04:37:49;;;;;;;;;;;;;;;8.97;75.85;100650.19;5070218;28;20031;-30
2022/11/05 04:40:15;;;;;;;;;;;;;;;8.97;75.52;100651.97;5070036;28;19920;-30
2022/11/05 04:42:40;;;;;;;;;;;;;;;8.95;76.21;100654.59;5070696;28;20441;-30
2022/11/05 04:45:05;;;;;;;;;;;;;;;8.92;76.12;100646.72;5071149;28;19924;-30
2022/11/05 04:47:30;;;;;;;;;;;;;;;8.91;76.03;100646.72;5055551;28;20072;-30
2022/11/05 04:49:56;;;;;;;;;;;;;;;8.91;75.64;100649.34;5073224;28;20011;-30
2022/11/05 04:52:21;;;;;;;;;;;;;;;8.89;75.59;100653.72;5073404;28;20007;-30
2022/11/05 04:54:46;;;;;;;;;;;;;;;8.88;75.77;100657.25;5072772;28;20019;-28
2022/11/05 04:57:11;;;;;;;;;;;;;;;8.84;75.51;100651.97;5051756;28;19983;-30
2022/11/05 04:59:36;;;;;;;;;;;;;;;8.82;75.83;100661.66;5075245;28;19923;-30
2022/11/05 05:02:02;;;;;;;;;;;;;;;8.81;75.50;100665.13;5073636;28;20058;-30
2022/11/05 05:04:27;;;;;;;;;;;;;;;8.79;75.61;100669.53;5072313;28;19931;-30
2022/11/05 05:06:52;;;;;;;;;;;;;;;8.78;75.47;100665.16;5070994;28;19920;-30
2022/11/05 05:09:17;;;;;;;;;;;;;;;8.76;75.50;100680.06;5057498;28;19968;-30
2022/11/05 05:11:43;;;;;;;;;;;;;;;8.75;75.72;100672.16;5073870;28;19923;-30
2022/11/05 05:14:08;;;;;;;;;;;;;;;8.72;75.98;100675.69;5072958;28;19931;-30
2022/11/05 05:16:33;;;;;;;;;;;;;;;8.71;75.84;100676.56;5041478;28;19920;-30
2022/11/05 05:18:58;;;;;;;;;;;;;;;8.70;75.99;100677.41;5056438;28;19916;-30
2022/11/05 05:21:39;;;;;;;;;;;;;;;8.68;76.19;100681.81;5070379;28;19917;-30
2022/11/05 05:24:07;;;;;;;;;;;;;;;8.65;76.18;100689.72;5070881;28;20026;-30
2022/11/05 05:26:32;;;;;;;;;;;;;;;8.64;75.73;100685.34;5074289;28;19924;-30
2022/11/05 05:28:58;;;;;;;;;;;;;;;8.62;75.63;100681.81;5073070;28;20252;-30
2022/11/05 05:31:23;;;;;;;;;;;;;;;8.59;75.81;100691.47;5052247;28;19922;-30
2022/11/05 05:33:51;;;;;;;;;;;;;;;8.56;75.81;100688.84;5067186;28;19916;-30
2022/11/05 05:36:16;;;;;;;;;;;;;;;8.57;75.73;100701.09;5074496;28;19927;-30
2022/11/05 05:38:41;;;;;;;;;;;;;;;8.55;75.62;100704.63;5073851;28;19920;-30
2022/11/05 05:41:07;;;;;;;;;;;;;;;8.52;75.83;100708.09;5072757;28;19920;-30
2022/11/05 05:43:32;;;;;;;;;;;;;;;8.50;75.46;100707.19;5065614;28;19916;-30
2022/11/05 05:46:04;;;;;;;;;;;;;;;8.48;75.45;100706.34;5073405;28;19917;-30
2022/11/05 05:48:29;;;;;;;;;;;;;;;8.46;75.38;100710.72;5074058;28;19913;-30
2022/11/05 05:50:58;;;;;;;;;;;;;;;8.42;75.47;100715.09;5071318;28;19990;-30
2022/11/05 05:53:23;;;;;;;;;;;;;;;8.40;75.54;100716.84;5062666;28;19974;-30
2022/11/05 05:55:48;;;;;;;;;;;;;;;8.38;75.69;100722.97;5072422;28;20362;-30
2022/11/05 05:58:13;;;;;;;;;;;;;;;8.36;75.45;100719.47;5073302;28;19920;-30
2022/11/05 06:00:39;;;;;;;;;;;;;;;8.33;75.31;100718.59;5072485;28;19925;-30
2022/11/05 06:03:05;;;;;;;;;;;;;;;8.32;75.45;100727.34;5059684;28;19916;-30
2022/11/05 06:05:30;;;;;;;;;;;;;;;8.29;75.38;100732.59;5068313;28;19916;-30
2022/11/05 06:07:56;;;;;;;;;;;;;;;8.27;75.16;100731.72;5065649;28;19927;-30
2022/11/05 06:10:21;;;;;;;;;;;;;;;8.25;75.29;100729.97;5071281;28;20436;-30
2022/11/05 06:12:46;;;;;;;;;;;;;;;8.22;74.98;100730.84;5069004;28;19925;-30
2022/11/05 06:15:11;;;;;;;;;;;;;;;8.20;75.13;100727.31;5072070;28;19917;-30
2022/11/05 06:17:37;;;;;;;;;;;;;;;8.17;74.87;100737.84;5075731;28;19916;-30
2022/11/05 06:20:02;;;;;;;;;;;;;;;8.12;75.03;100735.19;5065738;28;19970;-30
2022/11/05 06:22:27;;;;;;;;;;;;;;;8.07;75.25;100743.06;5070178;28;19963;-30
2022/11/05 06:24:52;;;;;;;;;;;;;;;8.05;74.96;100752.72;5052731;28;19916;-30
2022/11/05 06:27:18;;;;;;;;;;;;;;;8.02;75.24;100757.06;5055676;28;19927;-30
2022/11/05 06:29:43;;;;;;;;;;;;;;;7.99;75.32;100755.31;5045248;28;19920;-30
2022/11/05 06:32:08;;;;;;;;;;;;;;;7.96;75.21;100760.53;5072634;28;19916;-30
2022/11/05 06:34:35;;;;;;;;;;;;;;;7.95;74.66;100769.31;5068152;28;20052;-30
2022/11/05 06:37:00;;;;;;;;;;;;;;;7.94;75.08;100773.66;5083763;28;19920;-30
2022/11/05 06:39:26;;;;;;;;;;;;;;;7.92;74.88;100779.78;5073103;28;20074;-30
2022/11/05 06:41:51;;;;;;;;;;;;;;;7.90;75.15;100781.56;5058278;28;20065;-30
2022/11/05 06:44:16;;;;;;;;;;;;;;;7.86;74.84;100785.91;5072022;28;19927;-30
2022/11/05 06:46:41;;;;;;;;;;;;;;;7.82;75.10;100779.78;5074818;28;20077;-30
2022/11/05 06:49:07;;;;;;;;;;;;;;;7.79;75.12;100790.25;5078347;28;19923;-30
2022/11/05 06:51:32;;;;;;;;;;;;;;;7.77;75.22;100789.34;5049527;28;20338;-30
2022/11/05 06:53:57;;;;;;;;;;;;;;;7.77;74.93;100794.63;5049241;28;19917;-30
2022/11/05 06:56:23;;;;;;;;;;;;;;;7.75;74.93;100788.50;5069888;28;19917;-30
2022/11/05 06:58:48;;;;;;;;;;;;;;;7.72;74.85;100801.59;5070446;28;20012;-30
2022/11/05 07:01:13;;;;;;;;;;;;;;;7.69;75.23;100798.94;5075135;28;19916;-30
2022/11/05 07:03:38;;;;;;;;;;;;;;;7.69;75.02;100805.09;5071953;28;19928;-30
2022/11/05 07:06:05;;;;;;;;;;;;;;;7.66;75.13;100809.44;5065027;28;19975;-30
2022/11/05 07:08:31;;;;;;;;;;;;;;;7.65;75.00;100813.81;5063966;28;19920;-30
2022/11/05 07:10:56;;;;;;;;;;;;;;;7.64;75.26;100826.94;5070021;28;19980;-30
2022/11/05 07:13:22;;;;;;;;;;;;;;;7.61;75.07;100837.41;5065760;28;20461;-30
2022/11/05 07:15:47;;;;;;;;;;;;;;;7.60;75.32;100835.66;5062213;28;19916;-30
2022/11/05 07:18:12;;;;;;;;;;;;;;;7.58;75.31;100839.16;5068063;28;19912;-30
2022/11/05 07:20:37;;;;;;;;;;;;;;;7.57;75.25;100847.03;5071892;28;19920;-30
2022/11/05 07:23:03;;;;;;;;;;;;;;;7.55;75.32;100851.38;5069033;28;19999;-30
2022/11/05 07:25:29;;;;;;;;;;;;;;;7.54;75.57;100847.88;5047064;23;19931;-30
2022/11/05 07:27:55;;;;;;;;;;;;;;;7.54;75.74;100853.13;5032191;28;19921;-30
2022/11/05 07:30:20;;;;;;;;;;;;;;;7.55;75.78;100849.66;5034543;28;20020;-30
2022/11/05 07:32:45;;;;;;;;;;;;;;;7.56;75.94;100853.13;5025754;28;20297;-30
2022/11/05 07:35:11;;;;;;;;;;;;;;;7.57;76.16;100857.53;5017847;28;19918;-30
2022/11/05 07:37:46;;;;;;;;;;;;;;;7.56;76.21;100850.50;5015717;28;19929;-30
2022/11/05 07:40:12;;;;;;;;;;;;;;;7.55;76.22;100860.16;5009437;28;20378;-30
2022/11/05 07:42:47;;;;;;;;;;;;;;;7.56;76.33;100856.66;5009616;28;19921;-30
2022/11/05 07:45:13;;;;;;;;;;;;;;;7.56;76.65;100864.53;5012937;28;20072;-30
2022/11/05 07:47:38;;;;;;;;;;;;;;;7.56;76.59;100869.78;5012333;28;19962;-30
2022/11/05 07:50:04;;;;;;;;;;;;;;;7.56;76.49;100874.13;5011606;28;19921;-30
2022/11/05 07:52:30;;;;;;;;;;;;;;;7.56;76.60;100874.13;5002086;28;19918;-30
2022/11/05 07:54:56;;;;;;;;;;;;;;;7.57;76.70;100876.78;5005941;28;19922;-30
2022/11/05 07:57:21;;;;;;;;;;;;;;;7.60;76.84;100877.66;5008916;28;19922;-30
2022/11/05 07:59:47;;;;;;;;;;;;;;;7.64;76.65;100884.69;5020193;28;20352;-30
2022/11/05 08:02:12;;;;;;;;;;;;;;;7.67;76.76;100889.97;5010984;28;19917;-30
2022/11/05 08:04:39;;;;;;;;;;;;;;;7.70;76.70;100885.59;5013387;28;20275;-30
2022/11/05 08:07:04;;;;;;;;;;;;;;;7.72;76.54;100885.63;5017232;28;19917;-30
2022/11/05 08:09:29;;;;;;;;;;;;;;;7.75;76.52;100888.28;5012070;28;20011;-30
2022/11/05 08:11:56;;;;;;;;;;;;;;;7.79;76.38;100890.03;5011843;28;19949;-30
2022/11/05 08:14:21;;;;;;;;;;;;;;;7.82;76.29;100895.31;5017620;28;19918;-30
2022/11/05 08:16:46;;;;;;;;;;;;;;;7.87;76.25;100889.22;5018197;28;19921;-30
2022/11/05 08:19:12;;;;;;;;;;;;;;;7.92;75.99;100880.50;5011507;28;19918;-31
2022/11/05 08:21:37;;;;;;;;;;;;;;;7.97;75.95;100888.38;5010985;28;19928;-30
2022/11/05 08:24:02;;;;;;;;;;;;;;;8.01;76.20;100884.91;5018301;28;20003;-30
2022/11/05 08:26:28;;;;;;;;;;;;;;;8.04;76.26;100886.66;5023668;28;20062;-30
2022/11/05 08:28:53;;;;;;;;;;;;;;;8.09;76.26;100884.94;5032104;28;20420;-30
2022/11/05 08:31:18;;;;;;;;;;;;;;;8.14;76.45;100885.81;5024562;28;19924;-30
2022/11/05 08:33:43;;;;;;;;;;;;;;;8.18;76.18;100887.63;5010805;28;20385;-30
2022/11/05 08:36:09;;;;;;;;;;;;;;;8.24;76.11;100897.28;5012041;28;19972;-30
2022/11/05 08:38:34;;;;;;;;;;;;;;;8.27;76.34;100886.75;5018429;28;19967;-30
2022/11/05 08:40:59;;;;;;;;;;;;;;;8.31;76.58;100899.03;5014361;28;19925;-30
2022/11/05 08:43:25;;;;;;;;;;;;;;;8.36;76.94;100912.19;5013633;28;19922;-30
2022/11/05 08:45:50;;;;;;;;;;;;;;;8.41;76.90;100909.59;5023593;28;19913;-30
2022/11/05 08:48:16;;;;;;;;;;;;;;;8.45;77.14;100917.50;5028477;28;19972;-30
2022/11/05 08:50:43;;;;;;;;;;;;;;;8.50;77.15;100919.28;5011536;28;19917;-30
2022/11/05 08:53:08;;;;;;;;;;;;;;;8.54;77.70;100924.56;5010525;28;19937;-30
2022/11/05 08:55:34;;;;;;;;;;;;;;;8.57;77.48;100921.94;5020708;28;19917;-30
2022/11/05 08:58:00;;;;;;;;;;;;;;;8.62;77.75;100931.59;5011819;28;19913;-30
2022/11/05 09:00:26;;;;;;;;;;;;;;;8.66;78.04;100930.72;5009556;28;19917;-30
2022/11/05 09:02:51;;;;;;;;;;;;;;;8.70;77.91;100932.50;5010630;28;19923;-30
2022/11/05 09:05:16;;;;;;;;;;;;;;;8.73;78.04;100938.66;5020093;28;20007;-30
2022/11/05 09:07:42;;;;;;;;;;;;;;;8.79;78.02;100932.53;5011302;28;19924;-30
2022/11/05 09:10:07;;;;;;;;;;;;;;;8.83;77.94;100934.28;5010175;28;19980;-30
2022/11/05 09:12:33;;;;;;;;;;;;;;;8.89;78.07;100940.44;5009778;28;20338;-30
2022/11/05 09:14:58;;;;;;;;;;;;;;;8.94;78.38;100944.81;5017240;28;20307;-30
2022/11/05 09:17:23;;;;;;;;;;;;;;;9.00;78.28;100946.59;5012522;28;20358;-30
2022/11/05 09:19:49;;;;;;;;;;;;;;;9.05;78.30;100942.22;5011556;28;19956;-30
2022/11/05 09:22:14;;;;;;;;;;;;;;;9.11;78.48;100947.50;5010974;28;19914;-30
2022/11/05 09:24:40;;;;;;;;;;;;;;;9.17;78.36;100948.38;5024484;28;19917;-30
2022/11/05 09:27:06;;;;;;;;;;;;;;;9.22;78.15;100946.63;5024166;28;20340;-30
2022/11/05 09:29:31;;;;;;;;;;;;;;;9.29;78.29;100953.66;5013757;28;19925;-30
2022/11/05 09:31:56;;;;;;;;;;;;;;;9.37;78.40;100951.00;5018744;28;19924;-31
2022/11/05 09:34:22;;;;;;;;;;;;;;;9.43;78.38;100958.94;5017490;28;20306;-30
2022/11/05 09:36:47;;;;;;;;;;;;;;;9.51;78.41;100961.56;5025026;28;19972;-31
2022/11/05 09:39:13;;;;;;;;;;;;;;;9.59;78.66;100966.81;5029281;28;19956;-31
2022/11/05 09:41:38;;;;;;;;;;;;;;;9.65;78.38;100971.22;5014934;28;20083;-30
2022/11/05 09:44:13;;;;;;;;;;;;;;;9.69;78.48;100970.31;5013635;28;19940;-31
2022/11/05 09:46:49;;;;;;;;;;;;;;;9.75;78.18;100978.22;5018756;28;20011;-30
2022/11/05 09:49:40;;;;;;;;;;;;;;;9.81;78.23;100991.41;5034457;28;19948;-30
2022/11/05 09:52:09;;;;;;;;;;;;;;;9.91;78.75;100980.84;5029170;28;19917;-30
2022/11/05 09:54:34;;;;;;;;;;;;;;;9.95;78.89;100985.22;5021064;28;19926;-31
2022/11/05 09:57:00;;;;;;;;;;;;;;;10.00;78.59;100983.47;5036191;28;19971;-30
2022/11/05 09:59:35;;;;;;;;;;;;;;;10.05;78.46;100981.72;5024871;28;19917;-31
2022/11/05 10:02:09;;;;;;;;;;;;;;;10.12;78.40;100993.09;5021826;28;19925;-30
2022/11/05 10:04:34;;;;;;;;;;;;;;;10.16;77.99;100989.59;5010650;28;19917;-30
2022/11/05 10:07:01;;;;;;;;;;;;;;;10.24;78.71;100994.84;5014377;28;19932;-30
2022/11/05 10:09:30;;;;;;;;;;;;;;;10.30;78.69;100994.81;5014580;28;20080;-30
2022/11/05 10:12:04;;;;;;;;;;;;;;;10.36;78.35;100986.00;5017676;28;19917;-30
2022/11/05 10:14:31;;;;;;;;;;;;;;;10.43;78.67;100993.03;5016750;28;19917;-32
2022/11/05 10:17:15;;;;;;;;;;;;;;;10.48;78.38;100991.28;5026200;28;20012;-31
2022/11/05 10:20:06;;;;;;;;;;;;;;;10.56;78.16;100999.16;5027214;28;20018;-31
2022/11/05 10:22:31;;;;;;;;;;;;;;;10.62;78.38;100990.34;5013061;28;19924;-30
2022/11/05 10:24:57;;;;;;;;;;;;;;;10.70;78.46;100990.34;5017444;28;19921;-31
2022/11/05 10:27:24;;;;;;;;;;;;;;;10.79;79.54;100995.56;5020131;28;20557;-30
2022/11/05 10:29:49;;;;;;;;;;;;;;;10.84;79.94;100993.75;5025289;28;19921;-30
2022/11/05 10:32:18;;;;;;;;;;;;;;;10.89;79.03;100991.09;5018943;28;19932;-30
2022/11/05 10:34:43;;;;;;;;;;;;;;;10.96;78.80;100992.81;5016825;28;19979;-31
2022/11/05 10:37:09;;;;;;;;;;;;;;;11.01;79.05;100990.16;5018542;28;20020;-30
2022/11/05 10:39:34;;;;;;;;;;;;;;;11.04;78.10;100996.28;5012258;28;19932;-31
2022/11/05 10:42:13;;;;;;;;;;;;;;;11.09;78.08;100977.78;5013333;28;19932;-30
2022/11/05 10:44:42;;;;;;;;;;;;;;;11.17;78.17;100996.22;5021787;28;19924;-31
2022/11/05 10:47:16;;;;;;;;;;;;;;;11.20;77.62;100990.06;5045300;28;19913;-31
2022/11/05 10:50:01;;;;;;;;;;;;;;;11.27;77.44;100992.63;5025914;28;19932;-31
2022/11/05 10:52:29;;;;;;;;;;;;;;;11.35;77.17;100989.06;5024977;28;19917;-31
2022/11/05 10:55:01;;;;;;;;;;;;;;;11.41;76.98;100984.59;5032254;28;19913;-31
2022/11/05 10:57:33;;;;;;;;;;;;;;;11.47;77.20;100991.59;5029366;28;20004;-31
2022/11/05 11:00:14;;;;;;;;;;;;;;;11.56;77.22;100988.00;5019862;28;19926;-31
2022/11/05 11:02:40;;;;;;;;;;;;;;;11.64;76.76;100996.75;5016576;28;19918;-31
2022/11/05 11:05:05;;;;;;;;;;;;;;;11.71;76.70;100994.06;5013756;28;19948;-31
2022/11/05 11:07:31;;;;;;;;;;;;;;;11.74;76.10;100992.25;5013313;28;19913;-31
2022/11/05 11:09:56;;;;;;;;;;;;;;;11.81;76.34;100987.81;5017182;28;19928;-31
2022/11/05 11:12:23;;;;;;;;;;;;;;;11.87;76.78;100987.75;5025381;28;20274;-31
2022/11/05 11:15:01;;;;;;;;;;;;;;;11.94;76.29;100983.28;5013072;28;19928;-31
2022/11/05 11:17:28;;;;;;;;;;;;;;;12.00;76.32;100983.22;5012892;28;19928;-30
2022/11/05 11:20:12;;;;;;;;;;;;;;;12.07;76.30;100994.63;5008185;28;19917;-30
2022/11/05 11:22:37;;;;;;;;;;;;;;;12.11;76.00;100983.16;5013462;28;20070;-30
2022/11/05 11:25:17;;;;;;;;;;;;;;;12.21;75.78;100991.88;5011640;28;20393;-30
2022/11/05 11:27:42;;;;;;;;;;;;;;;12.29;75.98;100995.28;5012266;28;19918;-31
2022/11/05 11:30:15;;;;;;;;;;;;;;;12.38;75.32;100998.72;5018587;28;19925;-30
2022/11/05 11:32:40;;;;;;;;;;;;;;;12.44;75.44;101002.16;5023975;28;19920;-31
2022/11/05 11:35:06;;;;;;;;;;;;;;;12.51;74.33;101000.31;5032634;28;19913;-30
2022/11/05 11:37:36;;;;;;;;;;;;;;;12.57;74.27;100994.06;5014750;28;19917;-30
2022/11/05 11:40:11;;;;;;;;;;;;;;;12.63;74.46;100995.78;5023988;28;19920;-31
2022/11/05 11:42:38;;;;;;;;;;;;;;;12.67;74.70;100981.63;5020441;28;19921;-31
2022/11/05 11:45:05;;;;;;;;;;;;;;;12.71;74.17;100983.34;5012099;28;19924;-30
2022/11/05 11:47:30;;;;;;;;;;;;;;;12.78;74.33;100992.94;5012929;28;19914;-31
2022/11/05 11:49:57;;;;;;;;;;;;;;;12.85;74.76;100983.16;5011695;28;19964;-31
2022/11/05 11:52:30;;;;;;;;;;;;;;;12.93;74.89;100980.38;5019870;28;20310;-30
2022/11/05 11:55:10;;;;;;;;;;;;;;;13.02;75.25;100979.38;5015072;28;20379;-31
2022/11/05 11:58:02;;;;;;;;;;;;;;;13.09;75.79;100984.59;5006227;28;19956;-31
2022/11/05 12:00:28;;;;;;;;;;;;;;;13.18;75.69;100986.19;5013875;28;20366;-30
2022/11/05 12:03:03;;;;;;;;;;;;;;;13.27;76.12;100984.34;5026508;28;19917;-31
2022/11/05 12:05:37;;;;;;;;;;;;;;;13.37;75.60;100988.56;5023012;28;19921;-30
2022/11/05 12:08:15;;;;;;;;;;;;;;;13.42;74.75;100977.91;5032260;28;19913;-30
2022/11/05 12:10:40;;;;;;;;;;;;;;;13.48;74.53;100977.81;5021674;28;19976;-30
2022/11/05 12:13:26;;;;;;;;;;;;;;;13.51;74.20;100972.50;5022484;28;19941;-30
2022/11/05 12:15:55;;;;;;;;;;;;;;;13.57;73.72;100976.81;5012059;28;19957;-31
2022/11/05 12:18:33;;;;;;;;;;;;;;;13.64;73.54;100980.25;5012023;28;19920;-30
2022/11/05 12:21:05;;;;;;;;;;;;;;;13.66;72.96;100975.78;5018923;28;19928;-30
2022/11/05 12:23:34;;;;;;;;;;;;;;;13.72;73.25;100980.97;5020930;28;19929;-30
2022/11/05 12:26:10;;;;;;;;;;;;;;;13.77;73.20;100979.09;5011286;28;19960;-30
2022/11/05 12:28:44;;;;;;;;;;;;;;;13.81;73.07;100985.25;5011150;28;19913;-30
2022/11/05 12:31:18;;;;;;;;;;;;;;;13.83;73.12;100979.00;5018571;28;20207;-30
2022/11/05 12:33:50;;;;;;;;;;;;;;;13.89;72.51;100972.72;5031740;28;19920;-30
2022/11/05 12:36:21;;;;;;;;;;;;;;;13.94;72.72;100980.59;5019030;28;19913;-30
2022/11/05 12:38:49;;;;;;;;;;;;;;;13.99;72.27;100981.38;5011174;28;20041;-30
2022/11/05 12:41:27;;;;;;;;;;;;;;;14.01;71.94;100981.34;5020346;28;20386;-30
2022/11/05 12:44:12;;;;;;;;;;;;;;;14.05;71.66;100975.09;5031543;28;19913;-31
2022/11/05 12:46:37;;;;;;;;;;;;;;;14.10;71.95;100975.88;5012350;28;19922;-31
2022/11/05 12:49:12;;;;;;;;;;;;;;;14.15;72.17;100975.78;5010749;28;19918;-31
2022/11/05 12:51:56;;;;;;;;;;;;;;;14.19;71.73;100975.69;5012040;28;19963;-31
2022/11/05 12:54:40;;;;;;;;;;;;;;;14.26;71.70;100981.75;5005365;28;19918;-31
2022/11/05 12:57:06;;;;;;;;;;;;;;;14.33;71.55;100983.38;5011339;28;19924;-31
2022/11/05 12:59:36;;;;;;;;;;;;;;;14.36;71.09;100983.34;5002362;28;19923;-31
2022/11/05 13:02:21;;;;;;;;;;;;;;;14.42;70.86;100987.63;5006950;28;19932;-30
2022/11/05 13:04:51;;;;;;;;;;;;;;;14.43;70.56;100984.06;5005491;28;19917;-30
2022/11/05 13:07:17;;;;;;;;;;;;;;;14.47;70.60;100985.75;5030478;28;20381;-30
2022/11/05 13:09:47;;;;;;;;;;;;;;;14.53;70.49;100983.88;5013498;28;19924;-31
2022/11/05 13:12:13;;;;;;;;;;;;;;;14.54;70.06;100977.69;5016573;28;20337;-30
2022/11/05 13:14:53;;;;;;;;;;;;;;;14.57;69.75;100977.63;5019138;28;20008;-31
2022/11/05 13:17:20;;;;;;;;;;;;;;;14.60;69.65;100970.47;5019666;28;20427;-31
2022/11/05 13:20:04;;;;;;;;;;;;;;;14.62;70.00;100978.38;5008942;28;19924;-31
2022/11/05 13:22:38;;;;;;;;;;;;;;;14.68;69.35;100983.56;5012922;28;19917;-31
2022/11/05 13:25:09;;;;;;;;;;;;;;;14.71;68.65;100987.94;5009406;28;19999;-31